Terminal Aerodrome Forecast
Issued by NWS Lubbock, TX

Home | Current Version | Previous Version | Text Only | Print | Product List | Glossary On
Versions: 1 2 3 4 5 6 7 8 9 10 11 12 13 14 15
000
FTUS44 KLUB 302143 AAA
TAFLBB
TAF AMD
KLBB 302143Z 3022/3118 06011KT P6SM SCT080
      TEMPO 3022/3024 -TSRA BKN070CB
     FM310200 12009KT P6SM BKN250=

USA.gov is the U.S. government's official web portal to all federal, state and local government web resources and services.